Fairfield, Vermont
Current Conditions -  °F | °C
As of 8:35 AM on Wednesday 22 Oct 2014 (Local Time) from KFSO Reporting Station
Moderate Rain Moderate Rain  
Wind Chill: 39°   Ceiling: 7000
Heat Index: 43°   Visibility: 7mi
Dew Point: 42°   Wind: 8mph
Humidity: 97%   Direction: 360°N
Pressure: 30.21"   Gusts: NA
Location:  44.8°N, 72.95°W
Report Text: KFSO 221235Z AUTO 36007KT 7SM RA SCT004 OVC070 06/06 A3021 RMK AO2 T00630058
Loading
Personal Weather Stations






























Interactive Weather Map
Tropical Storm Tracking
New forecast layout! Learn more

10-Day Weather Forecast

Advertisements
Track Severe Weather on mobile